sensor_id;sensor_type;location;lat;lon;timestamp;P1;durP1;ratioP1;P2;durP2;ratioP2
6127;SDS011;7073;42.672;23.256;2022-12-05T00:01:54;9.80;;;6.00;;
6127;SDS011;7073;42.672;23.256;2022-12-05T00:04:21;7.43;;;5.37;;
6127;SDS011;7073;42.672;23.256;2022-12-05T00:06:48;10.67;;;6.50;;
6127;SDS011;7073;42.672;23.256;2022-12-05T00:09:15;8.03;;;5.03;;
6127;SDS011;7073;42.672;23.256;2022-12-05T00:11:42;8.90;;;5.97;;
6127;SDS011;7073;42.672;23.256;2022-12-05T00:14:10;10.40;;;7.00;;
6127;SDS011;7073;42.672;23.256;2022-12-05T00:16:38;11.07;;;6.00;;
6127;SDS011;7073;42.672;23.256;2022-12-05T00:19:08;11.87;;;7.17;;
6127;SDS011;7073;42.672;23.256;2022-12-05T00:21:37;10.07;;;6.03;;
6127;SDS011;7073;42.672;23.256;2022-12-05T00:24:05;10.53;;;6.27;;
6127;SDS011;7073;42.672;23.256;2022-12-05T00:26:33;11.37;;;6.73;;
6127;SDS011;7073;42.672;23.256;2022-12-05T00:29:00;10.50;;;6.73;;
6127;SDS011;7073;42.672;23.256;2022-12-05T00:31:27;10.30;;;6.50;;
6127;SDS011;7073;42.672;23.256;2022-12-05T00:33:54;11.57;;;6.67;;
6127;SDS011;7073;42.672;23.256;2022-12-05T00:36:23;14.47;;;6.93;;
6127;SDS011;7073;42.672;23.256;2022-12-05T00:38:52;10.77;;;6.37;;
6127;SDS011;7073;42.672;23.256;2022-12-05T00:41:21;17.43;;;6.77;;
6127;SDS011;7073;42.672;23.256;2022-12-05T00:43:49;14.77;;;7.77;;
6127;SDS011;7073;42.672;23.256;2022-12-05T00:46:17;13.23;;;6.90;;
6127;SDS011;7073;42.672;23.256;2022-12-05T00:48:45;12.90;;;6.93;;
6127;SDS011;7073;42.672;23.256;2022-12-05T00:51:12;16.37;;;7.07;;
6127;SDS011;7073;42.672;23.256;2022-12-05T00:53:43;10.00;;;6.63;;
6127;SDS011;7073;42.672;23.256;2022-12-05T00:56:11;15.30;;;7.10;;
6127;SDS011;7073;42.672;23.256;2022-12-05T00:58:39;14.27;;;8.10;;
6127;SDS011;7073;42.672;23.256;2022-12-05T01:01:07;15.83;;;7.33;;
6127;SDS011;7073;42.672;23.256;2022-12-05T01:03:35;15.33;;;7.87;;
6127;SDS011;7073;42.672;23.256;2022-12-05T01:06:02;12.90;;;7.27;;
6127;SDS011;7073;42.672;23.256;2022-12-05T01:08:30;16.70;;;9.13;;
6127;SDS011;7073;42.672;23.256;2022-12-05T01:10:58;16.07;;;8.00;;
6127;SDS011;7073;42.672;23.256;2022-12-05T01:13:26;16.23;;;8.90;;
6127;SDS011;7073;42.672;23.256;2022-12-05T01:15:54;12.67;;;7.83;;
6127;SDS011;7073;42.672;23.256;2022-12-05T01:18:20;12.93;;;7.30;;
6127;SDS011;7073;42.672;23.256;2022-12-05T01:20:48;11.37;;;7.23;;
6127;SDS011;7073;42.672;23.256;2022-12-05T01:23:15;15.87;;;7.90;;
6127;SDS011;7073;42.672;23.256;2022-12-05T01:25:43;12.27;;;7.40;;
6127;SDS011;7073;42.672;23.256;2022-12-05T01:28:13;13.70;;;7.67;;
6127;SDS011;7073;42.672;23.256;2022-12-05T01:30:42;15.40;;;7.60;;
6127;SDS011;7073;42.672;23.256;2022-12-05T01:33:11;14.90;;;8.73;;
6127;SDS011;7073;42.672;23.256;2022-12-05T01:35:38;11.93;;;7.50;;
6127;SDS011;7073;42.672;23.256;2022-12-05T01:38:06;12.40;;;8.03;;
6127;SDS011;7073;42.672;23.256;2022-12-05T01:40:34;15.23;;;7.77;;
6127;SDS011;7073;42.672;23.256;2022-12-05T01:43:01;13.40;;;6.80;;
6127;SDS011;7073;42.672;23.256;2022-12-05T01:45:32;11.63;;;7.20;;
6127;SDS011;7073;42.672;23.256;2022-12-05T01:48:01;12.07;;;7.10;;
6127;SDS011;7073;42.672;23.256;2022-12-05T01:50:31;13.10;;;7.03;;
6127;SDS011;7073;42.672;23.256;2022-12-05T01:52:58;12.03;;;6.77;;
6127;SDS011;7073;42.672;23.256;2022-12-05T01:55:25;16.57;;;7.47;;
6127;SDS011;7073;42.672;23.256;2022-12-05T01:57:52;15.90;;;7.70;;
6127;SDS011;7073;42.672;23.256;2022-12-05T02:00:21;14.70;;;7.80;;
6127;SDS011;7073;42.672;23.256;2022-12-05T02:02:51;12.43;;;7.50;;
6127;SDS011;7073;42.672;23.256;2022-12-05T02:05:20;14.43;;;7.60;;
6127;SDS011;7073;42.672;23.256;2022-12-05T02:07:50;15.93;;;8.03;;
6127;SDS011;7073;42.672;23.256;2022-12-05T02:10:17;14.97;;;8.37;;
6127;SDS011;7073;42.672;23.256;2022-12-05T02:12:44;12.83;;;7.40;;
6127;SDS011;7073;42.672;23.256;2022-12-05T02:15:16;17.03;;;7.80;;
6127;SDS011;7073;42.672;23.256;2022-12-05T02:17:53;14.10;;;7.20;;
6127;SDS011;7073;42.672;23.256;2022-12-05T02:20:31;13.10;;;6.83;;
6127;SDS011;7073;42.672;23.256;2022-12-05T02:32:18;15.97;;;7.97;;
6127;SDS011;7073;42.672;23.256;2022-12-05T02:34:56;11.70;;;6.80;;
6127;SDS011;7073;42.672;23.256;2022-12-05T02:37:27;13.27;;;6.80;;
6127;SDS011;7073;42.672;23.256;2022-12-05T02:39:59;15.30;;;7.40;;
6127;SDS011;7073;42.672;23.256;2022-12-05T02:42:30;12.53;;;6.93;;
6127;SDS011;7073;42.672;23.256;2022-12-05T02:45:03;12.10;;;7.30;;
6127;SDS011;7073;42.672;23.256;2022-12-05T02:47:35;13.50;;;7.43;;
6127;SDS011;7073;42.672;23.256;2022-12-05T02:50:06;15.60;;;7.97;;
6127;SDS011;7073;42.672;23.256;2022-12-05T02:52:35;13.63;;;8.20;;
6127;SDS011;7073;42.672;23.256;2022-12-05T02:55:03;14.70;;;7.00;;
6127;SDS011;7073;42.672;23.256;2022-12-05T02:57:32;12.00;;;7.10;;
6127;SDS011;7073;42.672;23.256;2022-12-05T03:00:00;14.10;;;7.40;;
6127;SDS011;7073;42.672;23.256;2022-12-05T03:02:28;13.07;;;7.50;;
6127;SDS011;7073;42.672;23.256;2022-12-05T03:05:01;13.97;;;6.57;;
6127;SDS011;7073;42.672;23.256;2022-12-05T03:07:41;13.33;;;7.93;;
6127;SDS011;7073;42.672;23.256;2022-12-05T03:10:11;14.23;;;7.60;;
6127;SDS011;7073;42.672;23.256;2022-12-05T03:12:43;15.20;;;8.60;;
6127;SDS011;7073;42.672;23.256;2022-12-05T03:15:16;16.87;;;7.70;;
6127;SDS011;7073;42.672;23.256;2022-12-05T03:17:49;13.63;;;7.50;;
6127;SDS011;7073;42.672;23.256;2022-12-05T03:20:21;13.73;;;7.27;;
6127;SDS011;7073;42.672;23.256;2022-12-05T03:22:53;12.97;;;7.10;;
6127;SDS011;7073;42.672;23.256;2022-12-05T03:25:25;16.77;;;8.70;;
6127;SDS011;7073;42.672;23.256;2022-12-05T03:28:01;12.90;;;7.27;;
6127;SDS011;7073;42.672;23.256;2022-12-05T03:30:36;14.77;;;8.80;;
6127;SDS011;7073;42.672;23.256;2022-12-05T03:33:04;14.33;;;8.17;;
6127;SDS011;7073;42.672;23.256;2022-12-05T03:35:39;16.13;;;9.33;;
6127;SDS011;7073;42.672;23.256;2022-12-05T03:38:10;23.23;;;8.33;;
6127;SDS011;7073;42.672;23.256;2022-12-05T03:40:40;16.43;;;8.23;;
6127;SDS011;7073;42.672;23.256;2022-12-05T03:43:13;13.63;;;7.60;;
6127;SDS011;7073;42.672;23.256;2022-12-05T03:45:48;16.13;;;8.90;;
6127;SDS011;7073;42.672;23.256;2022-12-05T03:48:22;12.50;;;7.23;;
6127;SDS011;7073;42.672;23.256;2022-12-05T03:50:57;13.63;;;7.53;;
6127;SDS011;7073;42.672;23.256;2022-12-05T03:53:26;21.50;;;9.40;;
6127;SDS011;7073;42.672;23.256;2022-12-05T03:55:58;21.20;;;9.77;;
6127;SDS011;7073;42.672;23.256;2022-12-05T03:58:32;18.13;;;8.70;;
6127;SDS011;7073;42.672;23.256;2022-12-05T04:01:05;16.90;;;8.87;;
6127;SDS011;7073;42.672;23.256;2022-12-05T04:03:35;22.23;;;9.30;;
6127;SDS011;7073;42.672;23.256;2022-12-05T04:06:09;19.37;;;10.20;;
6127;SDS011;7073;42.672;23.256;2022-12-05T04:08:43;18.20;;;9.60;;
6127;SDS011;7073;42.672;23.256;2022-12-05T04:11:17;25.27;;;10.10;;
6127;SDS011;7073;42.672;23.256;2022-12-05T04:13:50;18.80;;;10.47;;
6127;SDS011;7073;42.672;23.256;2022-12-05T04:16:20;20.70;;;10.20;;
6127;SDS011;7073;42.672;23.256;2022-12-05T04:19:08;18.33;;;9.53;;
6127;SDS011;7073;42.672;23.256;2022-12-05T04:21:42;22.10;;;10.00;;
6127;SDS011;7073;42.672;23.256;2022-12-05T04:24:11;18.87;;;9.90;;
6127;SDS011;7073;42.672;23.256;2022-12-05T04:27:03;19.30;;;9.30;;
6127;SDS011;7073;42.672;23.256;2022-12-05T04:29:36;19.27;;;9.23;;
6127;SDS011;7073;42.672;23.256;2022-12-05T04:32:18;18.23;;;9.70;;
6127;SDS011;7073;42.672;23.256;2022-12-05T04:34:51;17.30;;;8.93;;
6127;SDS011;7073;42.672;23.256;2022-12-05T04:37:24;17.40;;;9.43;;
6127;SDS011;7073;42.672;23.256;2022-12-05T04:39:56;15.10;;;8.70;;
6127;SDS011;7073;42.672;23.256;2022-12-05T04:42:27;16.60;;;9.27;;
6127;SDS011;7073;42.672;23.256;2022-12-05T04:44:58;15.13;;;8.63;;
6127;SDS011;7073;42.672;23.256;2022-12-05T04:47:29;17.33;;;8.83;;
6127;SDS011;7073;42.672;23.256;2022-12-05T04:50:02;19.90;;;9.00;;
6127;SDS011;7073;42.672;23.256;2022-12-05T04:52:33;19.63;;;10.60;;
6127;SDS011;7073;42.672;23.256;2022-12-05T04:55:02;27.90;;;12.93;;
6127;SDS011;7073;42.672;23.256;2022-12-05T04:57:34;29.07;;;11.77;;
6127;SDS011;7073;42.672;23.256;2022-12-05T05:00:07;21.93;;;10.27;;
6127;SDS011;7073;42.672;23.256;2022-12-05T05:02:36;21.00;;;10.10;;
6127;SDS011;7073;42.672;23.256;2022-12-05T05:05:08;16.40;;;9.43;;
6127;SDS011;7073;42.672;23.256;2022-12-05T05:07:43;18.23;;;9.67;;
6127;SDS011;7073;42.672;23.256;2022-12-05T05:10:12;16.57;;;9.80;;
6127;SDS011;7073;42.672;23.256;2022-12-05T05:12:41;23.20;;;9.20;;
6127;SDS011;7073;42.672;23.256;2022-12-05T05:15:08;14.43;;;8.90;;
6127;SDS011;7073;42.672;23.256;2022-12-05T05:17:35;17.17;;;9.47;;
6127;SDS011;7073;42.672;23.256;2022-12-05T05:20:02;23.43;;;11.10;;
6127;SDS011;7073;42.672;23.256;2022-12-05T05:22:45;22.00;;;10.40;;
6127;SDS011;7073;42.672;23.256;2022-12-05T05:25:13;32.23;;;18.30;;
6127;SDS011;7073;42.672;23.256;2022-12-05T05:27:40;38.03;;;19.07;;
6127;SDS011;7073;42.672;23.256;2022-12-05T05:30:07;25.40;;;14.07;;
6127;SDS011;7073;42.672;23.256;2022-12-05T05:32:34;29.13;;;11.90;;
6127;SDS011;7073;42.672;23.256;2022-12-05T05:35:01;19.33;;;9.97;;
6127;SDS011;7073;42.672;23.256;2022-12-05T05:37:29;19.10;;;10.00;;
6127;SDS011;7073;42.672;23.256;2022-12-05T05:39:57;20.60;;;10.83;;
6127;SDS011;7073;42.672;23.256;2022-12-05T05:42:24;20.80;;;11.87;;
6127;SDS011;7073;42.672;23.256;2022-12-05T05:44:50;16.47;;;9.00;;
6127;SDS011;7073;42.672;23.256;2022-12-05T05:47:17;26.10;;;11.73;;
6127;SDS011;7073;42.672;23.256;2022-12-05T05:49:44;26.73;;;12.17;;
6127;SDS011;7073;42.672;23.256;2022-12-05T05:52:11;18.00;;;8.87;;
6127;SDS011;7073;42.672;23.256;2022-12-05T05:54:37;22.20;;;10.37;;
6127;SDS011;7073;42.672;23.256;2022-12-05T05:57:06;24.17;;;10.90;;
6127;SDS011;7073;42.672;23.256;2022-12-05T05:59:33;20.93;;;10.83;;
6127;SDS011;7073;42.672;23.256;2022-12-05T06:01:59;33.17;;;16.87;;
6127;SDS011;7073;42.672;23.256;2022-12-05T06:04:26;24.70;;;12.70;;
6127;SDS011;7073;42.672;23.256;2022-12-05T06:06:53;23.43;;;12.30;;
6127;SDS011;7073;42.672;23.256;2022-12-05T06:09:20;19.70;;;9.60;;
6127;SDS011;7073;42.672;23.256;2022-12-05T06:11:47;18.00;;;10.30;;
6127;SDS011;7073;42.672;23.256;2022-12-05T06:14:15;19.27;;;11.90;;
6127;SDS011;7073;42.672;23.256;2022-12-05T06:16:42;21.63;;;12.87;;
6127;SDS011;7073;42.672;23.256;2022-12-05T06:19:08;25.63;;;13.10;;
6127;SDS011;7073;42.672;23.256;2022-12-05T06:21:35;20.83;;;12.23;;
6127;SDS011;7073;42.672;23.256;2022-12-05T06:24:02;22.43;;;13.03;;
6127;SDS011;7073;42.672;23.256;2022-12-05T06:26:29;25.30;;;11.07;;
6127;SDS011;7073;42.672;23.256;2022-12-05T06:28:56;22.20;;;10.73;;
6127;SDS011;7073;42.672;23.256;2022-12-05T06:31:24;17.73;;;9.47;;
6127;SDS011;7073;42.672;23.256;2022-12-05T06:33:57;31.57;;;17.53;;
6127;SDS011;7073;42.672;23.256;2022-12-05T06:36:25;27.17;;;13.57;;
6127;SDS011;7073;42.672;23.256;2022-12-05T06:38:52;28.63;;;12.57;;
6127;SDS011;7073;42.672;23.256;2022-12-05T06:41:19;23.67;;;11.40;;
6127;SDS011;7073;42.672;23.256;2022-12-05T06:43:48;27.93;;;15.90;;
6127;SDS011;7073;42.672;23.256;2022-12-05T06:46:17;25.07;;;12.97;;
6127;SDS011;7073;42.672;23.256;2022-12-05T06:48:45;23.90;;;11.77;;
6127;SDS011;7073;42.672;23.256;2022-12-05T06:51:13;27.20;;;12.43;;
6127;SDS011;7073;42.672;23.256;2022-12-05T06:53:41;18.30;;;9.80;;
6127;SDS011;7073;42.672;23.256;2022-12-05T06:56:09;20.97;;;10.63;;
6127;SDS011;7073;42.672;23.256;2022-12-05T06:58:40;19.47;;;10.30;;
6127;SDS011;7073;42.672;23.256;2022-12-05T07:01:09;18.73;;;9.03;;
6127;SDS011;7073;42.672;23.256;2022-12-05T07:03:56;17.50;;;9.17;;
6127;SDS011;7073;42.672;23.256;2022-12-05T07:06:23;20.00;;;9.93;;
6127;SDS011;7073;42.672;23.256;2022-12-05T07:08:50;20.13;;;8.67;;
6127;SDS011;7073;42.672;23.256;2022-12-05T07:11:16;19.37;;;10.33;;
6127;SDS011;7073;42.672;23.256;2022-12-05T07:13:43;18.70;;;9.03;;
6127;SDS011;7073;42.672;23.256;2022-12-05T07:16:10;19.93;;;8.60;;
6127;SDS011;7073;42.672;23.256;2022-12-05T07:18:37;20.97;;;10.20;;
6127;SDS011;7073;42.672;23.256;2022-12-05T07:21:06;32.13;;;11.03;;
6127;SDS011;7073;42.672;23.256;2022-12-05T07:23:35;18.90;;;10.30;;
6127;SDS011;7073;42.672;23.256;2022-12-05T07:26:03;23.50;;;9.60;;
6127;SDS011;7073;42.672;23.256;2022-12-05T07:28:30;15.60;;;10.10;;
6127;SDS011;7073;42.672;23.256;2022-12-05T07:30:58;13.50;;;8.03;;
6127;SDS011;7073;42.672;23.256;2022-12-05T07:33:26;13.20;;;8.57;;
6127;SDS011;7073;42.672;23.256;2022-12-05T07:35:57;13.70;;;9.13;;
6127;SDS011;7073;42.672;23.256;2022-12-05T07:38:26;13.93;;;8.80;;
6127;SDS011;7073;42.672;23.256;2022-12-05T07:40:53;20.97;;;13.83;;
6127;SDS011;7073;42.672;23.256;2022-12-05T07:43:20;25.80;;;9.17;;
6127;SDS011;7073;42.672;23.256;2022-12-05T07:45:47;14.87;;;8.20;;
6127;SDS011;7073;42.672;23.256;2022-12-05T07:48:13;11.57;;;7.03;;
6127;SDS011;7073;42.672;23.256;2022-12-05T07:50:40;16.00;;;7.60;;
6127;SDS011;7073;42.672;23.256;2022-12-05T07:53:07;16.17;;;9.57;;
6127;SDS011;7073;42.672;23.256;2022-12-05T07:55:35;13.77;;;6.20;;
6127;SDS011;7073;42.672;23.256;2022-12-05T07:58:03;17.20;;;9.17;;
6127;SDS011;7073;42.672;23.256;2022-12-05T08:00:30;16.00;;;7.57;;
6127;SDS011;7073;42.672;23.256;2022-12-05T08:02:57;20.10;;;9.10;;
6127;SDS011;7073;42.672;23.256;2022-12-05T08:05:23;14.60;;;9.57;;
6127;SDS011;7073;42.672;23.256;2022-12-05T08:07:50;14.47;;;8.40;;
6127;SDS011;7073;42.672;23.256;2022-12-05T08:10:17;13.10;;;8.00;;
6127;SDS011;7073;42.672;23.256;2022-12-05T08:12:45;17.60;;;8.73;;
6127;SDS011;7073;42.672;23.256;2022-12-05T08:15:12;13.47;;;8.13;;
6127;SDS011;7073;42.672;23.256;2022-12-05T08:17:39;20.23;;;8.53;;
6127;SDS011;7073;42.672;23.256;2022-12-05T08:20:06;17.43;;;10.30;;
6127;SDS011;7073;42.672;23.256;2022-12-05T08:22:33;19.67;;;9.70;;
6127;SDS011;7073;42.672;23.256;2022-12-05T08:25:00;14.60;;;8.67;;
6127;SDS011;7073;42.672;23.256;2022-12-05T08:27:27;14.23;;;7.90;;
6127;SDS011;7073;42.672;23.256;2022-12-05T08:29:55;21.93;;;7.73;;
6127;SDS011;7073;42.672;23.256;2022-12-05T08:32:22;16.20;;;8.97;;
6127;SDS011;7073;42.672;23.256;2022-12-05T08:34:49;15.67;;;7.87;;
6127;SDS011;7073;42.672;23.256;2022-12-05T08:37:15;13.73;;;8.00;;
6127;SDS011;7073;42.672;23.256;2022-12-05T08:39:42;10.57;;;6.47;;
6127;SDS011;7073;42.672;23.256;2022-12-05T08:42:09;12.67;;;7.40;;
6127;SDS011;7073;42.672;23.256;2022-12-05T08:44:36;19.63;;;9.30;;
6127;SDS011;7073;42.672;23.256;2022-12-05T08:47:04;15.17;;;8.43;;
6127;SDS011;7073;42.672;23.256;2022-12-05T08:49:31;15.67;;;9.27;;
6127;SDS011;7073;42.672;23.256;2022-12-05T08:51:58;14.53;;;7.77;;
6127;SDS011;7073;42.672;23.256;2022-12-05T08:54:24;17.40;;;8.80;;
6127;SDS011;7073;42.672;23.256;2022-12-05T08:56:51;17.80;;;9.37;;
6127;SDS011;7073;42.672;23.256;2022-12-05T08:59:18;11.93;;;7.87;;
6127;SDS011;7073;42.672;23.256;2022-12-05T09:01:45;16.87;;;9.20;;
6127;SDS011;7073;42.672;23.256;2022-12-05T09:04:16;18.80;;;9.20;;
6127;SDS011;7073;42.672;23.256;2022-12-05T09:06:43;16.40;;;8.57;;
6127;SDS011;7073;42.672;23.256;2022-12-05T09:09:10;17.53;;;8.47;;
6127;SDS011;7073;42.672;23.256;2022-12-05T09:11:38;13.90;;;8.50;;
6127;SDS011;7073;42.672;23.256;2022-12-05T09:14:10;17.27;;;8.50;;
6127;SDS011;7073;42.672;23.256;2022-12-05T09:16:37;12.77;;;8.13;;
6127;SDS011;7073;42.672;23.256;2022-12-05T09:19:04;12.40;;;7.60;;
6127;SDS011;7073;42.672;23.256;2022-12-05T09:21:37;11.60;;;7.10;;
6127;SDS011;7073;42.672;23.256;2022-12-05T09:24:04;14.53;;;6.73;;
6127;SDS011;7073;42.672;23.256;2022-12-05T09:26:31;19.67;;;9.70;;
6127;SDS011;7073;42.672;23.256;2022-12-05T09:28:58;11.80;;;7.30;;
6127;SDS011;7073;42.672;23.256;2022-12-05T09:31:26;14.30;;;8.17;;
6127;SDS011;7073;42.672;23.256;2022-12-05T09:33:54;10.83;;;7.00;;
6127;SDS011;7073;42.672;23.256;2022-12-05T09:36:22;10.80;;;7.00;;
6127;SDS011;7073;42.672;23.256;2022-12-05T09:38:52;11.83;;;7.10;;
6127;SDS011;7073;42.672;23.256;2022-12-05T09:41:30;12.63;;;6.27;;
6127;SDS011;7073;42.672;23.256;2022-12-05T09:44:38;9.77;;;6.47;;
6127;SDS011;7073;42.672;23.256;2022-12-05T09:47:11;13.63;;;6.90;;
6127;SDS011;7073;42.672;23.256;2022-12-05T09:49:55;12.17;;;7.40;;
6127;SDS011;7073;42.672;23.256;2022-12-05T09:52:27;12.37;;;7.27;;
6127;SDS011;7073;42.672;23.256;2022-12-05T09:54:58;14.97;;;7.13;;
6127;SDS011;7073;42.672;23.256;2022-12-05T09:57:32;13.53;;;6.67;;
6127;SDS011;7073;42.672;23.256;2022-12-05T10:00:03;9.93;;;7.70;;
6127;SDS011;7073;42.672;23.256;2022-12-05T10:02:35;22.77;;;11.93;;
6127;SDS011;7073;42.672;23.256;2022-12-05T10:05:10;12.83;;;7.27;;
6127;SDS011;7073;42.672;23.256;2022-12-05T10:07:45;11.13;;;6.50;;
6127;SDS011;7073;42.672;23.256;2022-12-05T10:10:27;11.67;;;7.60;;
6127;SDS011;7073;42.672;23.256;2022-12-05T10:13:08;14.63;;;7.63;;
6127;SDS011;7073;42.672;23.256;2022-12-05T10:15:43;14.43;;;6.93;;
6127;SDS011;7073;42.672;23.256;2022-12-05T10:18:14;13.57;;;7.40;;
6127;SDS011;7073;42.672;23.256;2022-12-05T10:20:54;16.23;;;7.23;;
6127;SDS011;7073;42.672;23.256;2022-12-05T10:23:26;13.10;;;7.43;;
6127;SDS011;7073;42.672;23.256;2022-12-05T10:25:58;15.10;;;9.27;;
6127;SDS011;7073;42.672;23.256;2022-12-05T10:28:31;13.73;;;7.70;;
6127;SDS011;7073;42.672;23.256;2022-12-05T10:31:03;12.23;;;7.30;;
6127;SDS011;7073;42.672;23.256;2022-12-05T10:33:35;13.13;;;7.83;;
6127;SDS011;7073;42.672;23.256;2022-12-05T10:36:11;17.00;;;8.33;;
6127;SDS011;7073;42.672;23.256;2022-12-05T10:38:39;11.37;;;6.87;;
6127;SDS011;7073;42.672;23.256;2022-12-05T10:41:09;17.97;;;7.80;;
6127;SDS011;7073;42.672;23.256;2022-12-05T10:43:38;12.03;;;7.27;;
6127;SDS011;7073;42.672;23.256;2022-12-05T10:46:07;12.90;;;7.50;;
6127;SDS011;7073;42.672;23.256;2022-12-05T10:48:36;18.17;;;8.70;;
6127;SDS011;7073;42.672;23.256;2022-12-05T10:51:05;15.20;;;8.23;;
6127;SDS011;7073;42.672;23.256;2022-12-05T10:53:38;14.07;;;8.50;;
